Time;durP1;ratioP1;P1;durP2;ratioP2;P2;SDS_P1;SDS_P2;PMS_P1;PMS_P2;Temp;Humidity;BMP_temperature;BMP_pressure;BME280_temperature;BME280_humidity;BME280_pressure;Samples;Min_cycle;Max_cycle;Signal;HPM_P1;HPM_P2
2021/05/04 00:01:08;;;;;;;15.67;14.07;;;7.40;99.90;;;;;;4989506;28;20240;-50
2021/05/04 00:03:35;;;;;;;16.60;15.07;;;7.50;99.90;;;;;;4986858;28;20709;-50
2021/05/04 00:06:02;;;;;;;15.53;14.03;;;7.40;99.90;;;;;;4990222;28;20658;-50
2021/05/04 00:08:30;;;;;;;16.00;14.43;;;7.50;99.90;;;;;;4990060;28;20590;-50
2021/05/04 00:10:57;;;;;;;15.00;13.60;;;7.50;99.90;;;;;;4989390;28;20305;-50
2021/05/04 00:13:25;;;;;;;15.40;13.90;;;7.50;99.90;;;;;;4989684;28;20605;-50
2021/05/04 00:15:52;;;;;;;15.00;13.60;;;7.50;99.90;;;;;;4991222;28;20237;-50
2021/05/04 00:18:20;;;;;;;14.83;13.43;;;7.50;99.90;;;;;;4977696;28;20230;-50
2021/05/04 00:20:50;;;;;;;15.33;13.77;;;7.50;99.90;;;;;;4994800;28;20240;-50
2021/05/04 00:23:17;;;;;;;15.37;13.87;;;7.50;99.90;;;;;;5001133;28;20244;-50
2021/05/04 00:25:44;;;;;;;14.87;13.37;;;7.50;99.90;;;;;;5009549;28;20234;-51
2021/05/04 00:28:11;;;;;;;14.10;12.80;;;7.50;99.90;;;;;;5009228;28;20244;-50
2021/05/04 00:30:56;;;;;;;13.57;12.27;;;7.60;99.90;;;;;;5008216;28;20267;-50
2021/05/04 00:33:24;;;;;;;14.07;12.77;;;7.70;99.90;;;;;;5009098;28;20241;-50
2021/05/04 00:35:51;;;;;;;13.80;12.50;;;7.60;99.90;;;;;;5009321;28;20229;-50
2021/05/04 00:38:19;;;;;;;15.23;12.93;;;7.60;99.90;;;;;;5009082;28;20230;-50
2021/05/04 00:40:46;;;;;;;14.20;12.80;;;7.60;99.90;;;;;;5008357;28;20245;-50
2021/05/04 00:43:14;;;;;;;13.57;12.17;;;7.60;99.90;;;;;;5008569;28;20341;-50
2021/05/04 00:45:41;;;;;;;13.70;12.00;;;7.60;99.90;;;;;;5009052;28;20317;-50
2021/05/04 00:48:09;;;;;;;12.43;11.33;;;7.60;99.90;;;;;;5009205;28;20320;-51
2021/05/04 00:50:37;;;;;;;13.20;11.90;;;7.60;99.90;;;;;;4992560;28;20238;-50
2021/05/04 00:53:05;;;;;;;15.70;11.63;;;7.60;99.90;;;;;;4989302;28;20313;-50
2021/05/04 00:55:33;;;;;;;12.70;11.50;;;7.60;99.90;;;;;;4989346;28;20237;-50
2021/05/04 00:58:02;;;;;;;14.00;12.60;;;7.60;99.90;;;;;;4987701;28;20772;-50
2021/05/04 01:00:30;;;;;;;13.27;11.97;;;7.50;99.90;;;;;;4987990;28;20645;-50
2021/05/04 01:02:58;;;;;;;12.93;11.73;;;7.50;99.90;;;;;;4989036;28;20244;-51
2021/05/04 01:05:26;;;;;;;13.37;12.07;;;7.50;99.90;;;;;;4988650;28;20645;-50
2021/05/04 01:07:54;;;;;;;12.50;11.23;;;7.50;99.90;;;;;;4988968;28;20238;-50
2021/05/04 01:10:22;;;;;;;13.40;12.20;;;7.50;99.90;;;;;;4987959;28;20240;-50
2021/05/04 01:12:49;;;;;;;12.43;11.23;;;7.50;99.90;;;;;;4982461;28;20765;-50
2021/05/04 01:15:17;;;;;;;12.70;11.50;;;7.50;99.90;;;;;;4996147;28;20280;-50
2021/05/04 01:17:44;;;;;;;12.30;11.10;;;7.50;99.90;;;;;;4987786;28;20252;-50
2021/05/04 01:20:12;;;;;;;11.87;10.67;;;7.50;99.90;;;;;;4996227;28;20289;-50
2021/05/04 01:22:41;;;;;;;12.30;11.20;;;7.50;99.90;;;;;;4978471;28;20593;-50
2021/05/04 01:25:09;;;;;;;12.27;11.07;;;7.40;99.90;;;;;;4989334;28;20701;-50
2021/05/04 01:27:36;;;;;;;12.13;11.03;;;7.40;99.90;;;;;;4988900;28;20242;-50
2021/05/04 01:30:06;;;;;;;12.40;11.20;;;7.40;99.90;;;;;;4988163;28;20234;-50
2021/05/04 01:32:33;;;;;;;11.90;10.23;;;7.40;99.90;;;;;;4987751;28;20238;-51
2021/05/04 01:35:01;;;;;;;11.10;10.00;;;7.40;99.90;;;;;;4979521;28;20265;-50
2021/05/04 01:37:28;;;;;;;13.80;11.17;;;7.40;99.90;;;;;;4968692;28;20242;-51
2021/05/04 01:39:56;;;;;;;12.33;10.17;;;7.40;99.90;;;;;;4968637;28;20241;-50
2021/05/04 01:42:24;;;;;;;12.23;11.03;;;7.40;99.90;;;;;;4967011;28;20241;-50
2021/05/04 01:44:51;;;;;;;13.97;11.00;;;7.40;99.90;;;;;;4988519;28;20282;-50
2021/05/04 01:47:18;;;;;;;12.03;10.80;;;7.40;99.90;;;;;;4986597;28;20241;-50
2021/05/04 01:49:47;;;;;;;12.50;11.20;;;7.40;99.90;;;;;;4987997;28;20280;-50
2021/05/04 01:52:15;;;;;;;12.57;11.10;;;7.40;99.90;;;;;;4982043;28;20242;-50
2021/05/04 01:54:43;;;;;;;11.97;10.83;;;7.40;99.90;;;;;;4969095;28;20711;-50
2021/05/04 01:57:11;;;;;;;12.93;11.00;;;7.40;99.90;;;;;;4969338;28;20269;-50
2021/05/04 01:59:39;;;;;;;11.37;10.10;;;7.30;99.90;;;;;;4968234;28;20740;-50
2021/05/04 02:02:06;;;;;;;11.37;10.27;;;7.30;99.90;;;;;;4968468;28;20617;-50
2021/05/04 02:04:34;;;;;;;11.10;10.00;;;7.30;99.90;;;;;;4968718;28;20328;-50
2021/05/04 02:07:03;;;;;;;11.27;10.00;;;7.40;99.90;;;;;;4969321;28;20247;-50
2021/05/04 02:09:31;;;;;;;11.23;10.13;;;7.40;99.90;;;;;;4972393;28;20285;-50
2021/05/04 02:11:59;;;;;;;10.67;9.57;;;7.40;99.90;;;;;;4994266;28;20872;-50
2021/05/04 02:14:27;;;;;;;11.50;10.40;;;7.40;99.90;;;;;;4994884;28;20241;-50
2021/05/04 02:16:55;;;;;;;10.67;9.67;;;7.40;99.90;;;;;;4999448;28;20237;-50
2021/05/04 02:19:22;;;;;;;10.73;9.63;;;7.40;99.90;;;;;;5004845;28;20230;-51
2021/05/04 02:21:50;;;;;;;10.07;9.17;;;7.40;99.90;;;;;;4991177;28;20233;-50
2021/05/04 02:24:17;;;;;;;11.00;9.70;;;7.40;99.90;;;;;;4975610;28;20238;-50
2021/05/04 02:26:44;;;;;;;10.67;9.57;;;7.40;99.90;;;;;;4972201;28;20598;-50
2021/05/04 02:29:11;;;;;;;9.90;9.00;;;7.40;99.90;;;;;;4972246;28;20314;-50
2021/05/04 02:31:40;;;;;;;10.33;9.13;;;7.40;99.90;;;;;;4971313;28;20238;-50
2021/05/04 02:34:07;;;;;;;10.43;8.90;;;7.40;99.90;;;;;;4973010;28;20905;-50
2021/05/04 02:36:34;;;;;;;9.63;8.73;;;7.40;99.90;;;;;;4972389;28;20230;-50
2021/05/04 02:39:03;;;;;;;11.70;8.50;;;7.40;99.90;;;;;;4972461;28;20282;-50
2021/05/04 02:41:31;;;;;;;9.67;8.20;;;7.40;99.90;;;;;;4971090;28;20241;-50
2021/05/04 02:43:58;;;;;;;9.10;8.20;;;7.40;99.90;;;;;;4972199;28;20242;-50
2021/05/04 02:46:25;;;;;;;9.43;8.40;;;7.40;99.90;;;;;;4971956;28;20238;-50
2021/05/04 02:48:54;;;;;;;9.03;8.13;;;7.40;99.90;;;;;;4972235;28;20226;-50
2021/05/04 02:51:21;;;;;;;8.57;7.77;;;7.50;99.90;;;;;;4971159;28;20234;-50
2021/05/04 02:53:48;;;;;;;8.83;8.03;;;7.50;99.90;;;;;;4985522;28;20235;-50
2021/05/04 02:56:16;;;;;;;9.60;8.60;;;7.50;99.90;;;;;;4991562;28;20246;-51
2021/05/04 02:58:44;;;;;;;8.83;7.50;;;7.50;99.90;;;;;;4990633;28;20238;-50
2021/05/04 03:01:11;;;;;;;8.03;7.23;;;7.50;99.90;;;;;;4990819;28;20728;-50
2021/05/04 03:03:40;;;;;;;10.60;8.20;;;7.50;99.90;;;;;;4991643;28;20252;-50
2021/05/04 03:06:08;;;;;;;8.57;7.73;;;7.50;99.90;;;;;;4991345;28;20258;-50
2021/05/04 03:08:35;;;;;;;8.50;7.50;;;7.50;99.90;;;;;;4992032;28;20575;-50
2021/05/04 03:11:03;;;;;;;9.20;7.43;;;7.50;99.90;;;;;;4995242;28;20239;-50
2021/05/04 03:13:33;;;;;;;7.90;7.10;;;7.50;99.90;;;;;;4991679;28;20271;-50
2021/05/04 03:16:01;;;;;;;7.77;6.97;;;7.50;99.90;;;;;;5002698;28;20324;-50
2021/05/04 03:18:28;;;;;;;9.23;6.40;;;7.50;99.90;;;;;;4993262;28;20296;-50
2021/05/04 03:20:56;;;;;;;7.13;6.43;;;7.60;99.90;;;;;;4989201;28;20308;-50
2021/05/04 03:23:24;;;;;;;7.57;6.10;;;7.60;99.90;;;;;;4990440;28;20246;-50
2021/05/04 03:25:52;;;;;;;8.13;6.20;;;7.60;99.90;;;;;;4990921;28;20242;-50
2021/05/04 03:28:20;;;;;;;6.20;5.60;;;7.60;99.90;;;;;;4987370;28;20261;-50
2021/05/04 03:30:48;;;;;;;6.00;5.07;;;7.70;99.90;;;;;;4989383;28;20320;-50
2021/05/04 03:33:15;;;;;;;6.50;5.07;;;7.80;99.90;;;;;;4990420;28;20292;-50
2021/05/04 03:35:43;;;;;;;5.83;5.33;;;7.80;99.90;;;;;;4990404;28;20852;-51
2021/05/04 03:38:11;;;;;;;5.13;4.70;;;7.80;99.90;;;;;;4986869;28;20242;-50
2021/05/04 03:40:39;;;;;;;6.13;5.33;;;7.80;99.90;;;;;;4990054;28;20234;-50
2021/05/04 03:43:06;;;;;;;5.73;5.13;;;7.80;99.90;;;;;;4990820;28;20304;-50
2021/05/04 03:45:34;;;;;;;5.57;4.93;;;7.80;99.90;;;;;;5005259;28;20234;-50
2021/05/04 03:48:01;;;;;;;7.53;5.23;;;7.80;99.90;;;;;;5005451;28;20295;-50
2021/05/04 03:50:29;;;;;;;5.70;4.73;;;7.80;99.90;;;;;;4989019;28;20234;-50
2021/05/04 03:52:57;;;;;;;5.37;4.80;;;7.90;99.90;;;;;;4989392;28;20242;-50
2021/05/04 03:55:24;;;;;;;5.97;5.37;;;7.90;99.90;;;;;;4990559;28;20818;-50
2021/05/04 03:57:53;;;;;;;5.50;5.03;;;7.90;99.90;;;;;;4990564;28;20230;-50
2021/05/04 04:00:22;;;;;;;6.40;5.07;;;7.90;99.90;;;;;;4988511;28;20230;-50
2021/05/04 04:02:50;;;;;;;5.00;4.50;;;7.90;99.90;;;;;;5004575;28;20229;-50
2021/05/04 04:05:17;;;;;;;5.37;4.87;;;8.00;99.90;;;;;;4990130;28;20234;-50
2021/05/04 04:07:44;;;;;;;4.93;4.37;;;8.00;99.90;;;;;;4992083;28;20292;-50
2021/05/04 04:10:12;;;;;;;5.40;4.33;;;8.10;99.90;;;;;;4992580;28;20242;-51
2021/05/04 04:12:40;;;;;;;4.90;4.30;;;8.10;99.90;;;;;;5015929;28;20323;-50
2021/05/04 04:15:10;;;;;;;5.60;4.87;;;8.10;99.90;;;;;;4998632;28;20286;-50
2021/05/04 04:17:37;;;;;;;6.80;4.53;;;8.10;99.90;;;;;;4970667;28;20292;-50
2021/05/04 04:20:08;;;;;;;6.83;4.47;;;8.10;99.90;;;;;;4969650;28;20246;-50
2021/05/04 04:22:36;;;;;;;5.70;4.80;;;8.10;99.90;;;;;;4970231;28;20253;-50
2021/05/04 04:25:04;;;;;;;7.33;5.20;;;8.10;99.90;;;;;;4970319;28;20242;-50
2021/05/04 04:27:31;;;;;;;5.63;5.13;;;8.10;99.90;;;;;;4970367;28;20239;-50
2021/05/04 04:29:58;;;;;;;5.27;4.80;;;8.10;99.90;;;;;;4969804;28;20290;-51
2021/05/04 04:32:27;;;;;;;6.00;5.40;;;8.10;99.90;;;;;;4969205;28;20599;-50
2021/05/04 04:34:54;;;;;;;6.57;5.80;;;8.10;99.90;;;;;;4982710;28;20318;-50
2021/05/04 04:37:22;;;;;;;5.03;4.60;;;8.10;99.90;;;;;;4989673;28;20234;-50
2021/05/04 04:39:50;;;;;;;5.87;5.30;;;8.10;99.90;;;;;;4987632;28;20627;-49
2021/05/04 04:42:17;;;;;;;5.87;5.37;;;8.00;99.90;;;;;;4989075;28;20234;-50
2021/05/04 04:44:45;;;;;;;5.60;5.10;;;8.00;99.90;;;;;;4989025;28;20341;-50
2021/05/04 04:47:12;;;;;;;7.77;5.43;;;8.00;99.90;;;;;;4989462;28;20269;-50
2021/05/04 04:49:41;;;;;;;6.77;5.30;;;8.00;99.90;;;;;;4988937;28;20234;-50
2021/05/04 04:52:09;;;;;;;8.57;5.50;;;8.00;99.90;;;;;;4983920;28;20250;-50
2021/05/04 04:54:36;;;;;;;6.33;5.80;;;8.00;99.90;;;;;;4970173;28;20590;-50
2021/05/04 04:57:04;;;;;;;5.90;5.40;;;8.00;99.90;;;;;;4970075;28;20258;-50
2021/05/04 04:59:32;;;;;;;6.53;5.90;;;8.00;99.90;;;;;;4968865;28;20598;-50
2021/05/04 05:01:59;;;;;;;8.17;5.30;;;8.00;99.90;;;;;;4978102;28;20247;-50
2021/05/04 05:04:27;;;;;;;7.90;6.07;;;7.90;99.90;;;;;;4981922;28;20318;-51
2021/05/04 05:06:55;;;;;;;6.20;5.60;;;8.00;99.90;;;;;;4984447;28;20230;-50
2021/05/04 05:09:23;;;;;;;8.87;5.50;;;8.00;99.90;;;;;;4987461;28;20265;-51
2021/05/04 05:11:50;;;;;;;7.23;6.07;;;8.00;99.90;;;;;;5000099;28;20229;-50
2021/05/04 05:14:17;;;;;;;9.83;5.90;;;7.90;99.90;;;;;;4989204;28;20325;-50
2021/05/04 05:16:45;;;;;;;7.97;7.13;;;7.90;99.90;;;;;;4985371;28;20239;-49
2021/05/04 05:19:12;;;;;;;9.83;7.03;;;7.90;99.90;;;;;;4971275;28;20723;-49
2021/05/04 05:21:39;;;;;;;7.73;5.83;;;8.00;99.90;;;;;;4970962;28;20230;-49
2021/05/04 05:24:09;;;;;;;6.63;5.90;;;7.90;99.90;;;;;;4980667;28;20296;-50
2021/05/04 05:26:36;;;;;;;7.72;6.90;;;7.90;99.90;;;;;;4985277;28;20444;-51
2021/05/04 05:29:06;;;;;;;7.70;6.20;;;8.00;99.90;;;;;;4988641;28;20237;-52
2021/05/04 05:31:34;;;;;;;9.80;6.03;;;8.10;99.90;;;;;;4971913;28;20438;-50
2021/05/04 05:34:03;;;;;;;6.97;5.50;;;8.30;99.90;;;;;;4966217;28;20314;-50
2021/05/04 05:36:30;;;;;;;5.67;5.17;;;8.20;99.90;;;;;;4966761;28;20688;-49
2021/05/04 05:38:58;;;;;;;6.10;5.50;;;8.10;99.90;;;;;;4967360;28;20242;-50
2021/05/04 05:41:27;;;;;;;6.10;5.50;;;8.10;99.90;;;;;;4966482;28;20269;-50
2021/05/04 05:43:54;;;;;;;7.53;6.03;;;8.00;99.90;;;;;;4967683;28;20226;-50
2021/05/04 05:46:22;;;;;;;6.77;6.03;;;8.00;99.90;;;;;;4971493;28;20239;-50
2021/05/04 05:48:49;;;;;;;6.53;5.83;;;8.00;99.90;;;;;;4972883;28;20235;-50
2021/05/04 05:51:16;;;;;;;6.63;5.90;;;8.00;99.90;;;;;;4972236;28;20265;-49
2021/05/04 05:53:44;;;;;;;7.07;6.23;;;8.00;99.90;;;;;;4972421;28;20243;-49
2021/05/04 05:56:11;;;;;;;6.90;6.20;;;8.00;99.90;;;;;;4973119;28;20242;-50
2021/05/04 05:58:39;;;;;;;6.33;5.73;;;8.10;99.90;;;;;;4973182;28;20246;-50
2021/05/04 06:01:07;;;;;;;6.67;5.47;;;8.10;99.90;;;;;;4976592;28;20765;-50
2021/05/04 06:03:34;;;;;;;7.07;5.40;;;8.10;99.90;;;;;;4991004;28;20698;-49
2021/05/04 06:06:01;;;;;;;6.20;5.60;;;8.10;99.90;;;;;;4986614;28;20238;-49
2021/05/04 06:08:30;;;;;;;9.80;5.90;;;8.10;99.90;;;;;;5002299;28;20237;-50
2021/05/04 06:10:57;;;;;;;6.13;5.53;;;8.10;99.90;;;;;;4997321;28;20222;-51
2021/05/04 06:13:24;;;;;;;9.83;5.93;;;8.10;99.90;;;;;;4981696;28;20238;-49
2021/05/04 06:15:53;;;;;;;9.07;6.03;;;8.10;99.90;;;;;;4972939;28;20238;-50
2021/05/04 06:18:20;;;;;;;7.50;5.67;;;8.10;99.90;;;;;;4972821;28;20242;-49
2021/05/04 06:20:47;;;;;;;7.87;5.43;;;8.10;99.90;;;;;;4971318;28;20296;-49
2021/05/04 06:23:14;;;;;;;6.40;4.53;;;8.10;99.90;;;;;;4972582;28;20638;-50
2021/05/04 06:25:42;;;;;;;8.03;6.00;;;8.10;99.90;;;;;;4976906;28;20317;-50
2021/05/04 06:28:10;;;;;;;7.10;5.10;;;8.20;99.90;;;;;;4992562;28;20241;-49
2021/05/04 06:30:38;;;;;;;8.63;5.27;;;8.20;99.90;;;;;;4990824;28;20233;-49
2021/05/04 06:33:10;;;;;;;7.70;4.50;;;8.20;99.90;;;;;;4991516;28;20237;-49
2021/05/04 06:35:41;;;;;;;6.00;4.70;;;8.20;99.90;;;;;;4991951;28;20238;-49
2021/05/04 06:38:11;;;;;;;7.57;5.33;;;8.30;99.90;;;;;;4992267;28;20251;-49
2021/05/04 06:40:40;;;;;;;5.80;5.13;;;8.40;99.90;;;;;;4990840;28;20722;-49
2021/05/04 06:43:07;;;;;;;5.50;5.00;;;8.50;99.90;;;;;;4991003;28;20321;-50
2021/05/04 06:45:35;;;;;;;4.90;4.00;;;8.80;99.90;;;;;;4991419;28;20236;-49
2021/05/04 06:48:03;;;;;;;5.97;4.10;;;8.90;99.90;;;;;;4991410;28;20234;-51
2021/05/04 06:50:31;;;;;;;6.73;4.20;;;8.90;99.90;;;;;;4990320;28;20251;-50
2021/05/04 06:52:58;;;;;;;4.73;4.20;;;8.90;99.90;;;;;;4990709;28;20245;-50
2021/05/04 06:55:26;;;;;;;5.03;4.10;;;8.80;99.90;;;;;;4990797;28;20274;-49
2021/05/04 06:57:53;;;;;;;4.33;3.93;;;8.80;99.90;;;;;;4987162;28;20253;-50
2021/05/04 07:00:21;;;;;;;4.70;3.73;;;8.80;99.90;;;;;;4998478;28;20796;-49
2021/05/04 07:02:49;;;;;;;5.53;3.80;;;8.70;99.90;;;;;;4992117;28;20296;-49
2021/05/04 07:05:18;;;;;;;4.70;4.00;;;8.70;99.90;;;;;;5002115;28;20306;-50
2021/05/04 07:07:46;;;;;;;4.07;3.77;;;8.70;99.90;;;;;;4991059;28;20713;-49
2021/05/04 07:10:14;;;;;;;7.70;3.80;;;8.80;99.90;;;;;;4990474;28;20752;-49
2021/05/04 07:12:43;;;;;;;4.37;3.90;;;8.80;99.90;;;;;;4990159;28;20777;-49
2021/05/04 07:15:12;;;;;;;4.33;3.80;;;8.80;99.90;;;;;;4989665;28;21091;-49
2021/05/04 07:17:41;;;;;;;5.30;3.63;;;8.80;99.90;;;;;;4975031;28;20266;-50
2021/05/04 07:20:10;;;;;;;4.90;3.50;;;8.90;99.90;;;;;;4971258;28;20251;-50
2021/05/04 07:22:38;;;;;;;5.93;3.53;;;8.90;99.90;;;;;;4978851;28;20673;-49
2021/05/04 07:25:07;;;;;;;4.50;3.40;;;8.90;99.90;;;;;;4977029;28;20707;-49
2021/05/04 07:27:35;;;;;;;6.23;3.33;;;8.90;99.90;;;;;;4969331;28;20251;-49
2021/05/04 07:30:02;;;;;;;4.07;3.67;;;9.00;99.90;;;;;;4964727;28;20310;-50
2021/05/04 07:32:30;;;;;;;4.73;3.40;;;9.00;99.90;;;;;;4972631;28;20619;-49
2021/05/04 07:34:58;;;;;;;4.37;3.30;;;9.10;99.90;;;;;;4969021;28;20270;-50
2021/05/04 07:37:25;;;;;;;5.13;3.30;;;9.10;99.90;;;;;;4985249;28;20622;-49
2021/05/04 07:39:52;;;;;;;5.63;3.40;;;9.00;99.90;;;;;;4969264;28;20322;-49
2021/05/04 07:42:20;;;;;;;4.87;3.23;;;9.00;99.90;;;;;;4967835;28;20302;-50
2021/05/04 07:44:48;;;;;;;3.83;2.90;;;9.00;99.90;;;;;;4968324;28;20289;-49
2021/05/04 07:47:15;;;;;;;4.97;3.20;;;9.00;99.90;;;;;;4967843;28;20240;-49
2021/05/04 07:49:44;;;;;;;4.27;3.33;;;9.00;99.90;;;;;;4968208;28;20327;-50
2021/05/04 07:52:12;;;;;;;3.30;3.00;;;9.00;99.90;;;;;;4969679;28;20329;-49
2021/05/04 07:54:42;;;;;;;5.30;2.60;;;9.10;99.90;;;;;;4970260;28;20846;-50
2021/05/04 07:57:11;;;;;;;3.07;2.77;;;9.10;99.90;;;;;;4984237;28;20766;-50
2021/05/04 07:59:40;;;;;;;4.43;2.60;;;9.10;99.90;;;;;;4973066;28;20248;-49
2021/05/04 08:02:07;;;;;;;2.90;2.70;;;9.20;99.90;;;;;;4978692;28;20242;-49
2021/05/04 08:04:35;;;;;;;3.50;3.00;;;9.30;99.90;;;;;;4993668;28;20331;-49
2021/05/04 08:07:07;;;;;;;2.87;2.60;;;9.30;99.90;;;;;;5008559;28;20292;-49
2021/05/04 08:09:35;;;;;;;3.10;2.90;;;9.50;99.90;;;;;;5008748;28;20273;-49
2021/05/04 08:12:03;;;;;;;3.87;3.17;;;9.50;99.90;;;;;;4972491;28;20342;-49
2021/05/04 08:14:33;;;;;;;4.60;3.00;;;9.60;99.90;;;;;;4970327;28;20286;-50
2021/05/04 08:17:11;;;;;;;3.10;2.80;;;9.70;99.90;;;;;;4969946;28;20647;-50
2021/05/04 08:19:38;;;;;;;6.60;3.20;;;10.00;99.90;;;;;;4971623;28;20652;-49
2021/05/04 08:22:06;;;;;;;3.90;3.20;;;10.10;99.90;;;;;;4954572;28;20240;-50
2021/05/04 08:24:33;;;;;;;3.07;2.80;;;10.10;99.90;;;;;;4951290;28;20242;-49
2021/05/04 08:27:01;;;;;;;3.40;2.90;;;10.10;99.90;;;;;;4951440;28;20594;-50
2021/05/04 08:29:28;;;;;;;4.63;2.47;;;10.20;99.90;;;;;;4955770;28;20233;-50
2021/05/04 08:31:55;;;;;;;4.23;2.20;;;10.10;99.90;;;;;;4965767;28;20225;-51
2021/05/04 08:34:23;;;;;;;3.30;2.60;;;10.00;99.90;;;;;;4966783;28;20237;-49
2021/05/04 08:36:51;;;;;;;2.93;2.73;;;10.00;99.90;;;;;;4951496;28;20344;-51
2021/05/04 08:39:18;;;;;;;2.57;2.37;;;10.00;99.90;;;;;;4950667;28;20705;-49
2021/05/04 08:41:47;;;;;;;3.17;2.77;;;10.00;99.90;;;;;;4950116;28;20323;-49
2021/05/04 08:44:16;;;;;;;2.90;2.60;;;10.00;99.90;;;;;;4950894;28;20308;-50
2021/05/04 08:46:45;;;;;;;3.10;2.73;;;10.00;99.90;;;;;;4964851;28;20244;-49
2021/05/04 08:49:14;;;;;;;3.50;2.70;;;10.00;99.90;;;;;;4968087;28;20276;-50
2021/05/04 08:51:44;;;;;;;5.07;3.00;;;10.00;99.90;;;;;;4951236;28;20641;-49
2021/05/04 08:54:12;;;;;;;4.13;3.20;;;10.00;99.90;;;;;;4969527;28;20247;-51
2021/05/04 08:56:41;;;;;;;4.73;4.07;;;10.10;99.90;;;;;;4973728;28;20234;-49
2021/05/04 08:59:09;;;;;;;5.10;3.67;;;10.30;99.90;;;;;;4986757;28;20244;-50
2021/05/04 09:01:37;;;;;;;5.30;4.80;;;10.50;99.90;;;;;;4976416;28;20589;-49
2021/05/04 09:04:08;;;;;;;5.77;4.57;;;10.40;99.90;;;;;;4978381;28;20236;-49
2021/05/04 09:06:39;;;;;;;5.40;3.57;;;10.20;99.90;;;;;;4989059;28;20765;-49
2021/05/04 09:09:16;;;;;;;5.23;3.00;;;10.00;99.90;;;;;;4989263;28;20243;-49
2021/05/04 09:12:05;;;;;;;3.83;3.20;;;9.90;99.90;;;;;;4987898;28;20231;-50
2021/05/04 09:14:42;;;;;;;3.67;3.37;;;10.00;99.90;;;;;;4986526;28;20244;-49
2021/05/04 09:17:16;;;;;;;3.60;3.30;;;9.80;99.90;;;;;;4975461;28;20244;-49
2021/05/04 09:22:36;;;;;;;4.07;3.50;;;9.80;99.90;;;;;;4969026;28;20251;-49
2021/05/04 09:25:08;;;;;;;4.50;3.70;;;9.70;99.90;;;;;;4969306;28;20231;-49
2021/05/04 09:27:35;;;;;;;5.83;4.00;;;9.60;99.90;;;;;;4969332;28;20244;-49
2021/05/04 09:30:03;;;;;;;4.77;3.90;;;9.60;99.90;;;;;;4968745;28;20315;-49
2021/05/04 09:32:50;;;;;;;4.70;3.53;;;9.60;99.90;;;;;;4969445;28;20258;-52
2021/05/04 09:35:17;;;;;;;4.43;3.40;;;9.60;99.90;;;;;;4960397;28;20825;-51
2021/05/04 09:37:45;;;;;;;5.80;3.67;;;9.60;99.90;;;;;;4959301;28;20643;-51
2021/05/04 09:40:25;;;;;;;4.00;3.70;;;9.50;99.90;;;;;;4961409;28;20239;-49
2021/05/04 09:43:09;;;;;;;3.70;3.30;;;9.50;99.90;;;;;;4968220;28;20240;-49
2021/05/04 09:45:41;;;;;;;3.50;3.20;;;9.50;99.90;;;;;;4967325;28;20243;-49
2021/05/04 09:48:22;;;;;;;5.17;3.77;;;9.50;99.90;;;;;;4969274;28;20251;-49
2021/05/04 09:51:01;;;;;;;4.80;3.57;;;9.50;99.90;;;;;;4990838;28;20229;-50
2021/05/04 09:53:39;;;;;;;4.13;3.77;;;9.50;99.90;;;;;;4980057;28;20723;-49
2021/05/04 09:56:10;;;;;;;5.77;4.13;;;9.50;99.90;;;;;;4964624;28;20249;-49
2021/05/04 09:58:41;;;;;;;95.43;23.00;;;9.50;99.90;;;;;;4976113;28;20243;-50
2021/05/04 10:01:11;;;;;;;37.73;12.33;;;9.60;99.90;;;;;;4970439;28;20673;-51
2021/05/04 10:03:41;;;;;;;6.17;3.97;;;9.60;99.90;;;;;;4967874;28;20237;-52
2021/05/04 10:06:11;;;;;;;4.67;3.20;;;9.60;99.90;;;;;;4967863;28;20331;-50
2021/05/04 10:08:40;;;;;;;3.50;3.20;;;9.70;99.90;;;;;;4967687;28;20644;-51
2021/05/04 10:11:10;;;;;;;4.03;3.63;;;9.60;99.90;;;;;;4966397;28;20311;-50
2021/05/04 10:13:39;;;;;;;3.33;3.00;;;9.60;99.90;;;;;;4967727;28;20257;-50
2021/05/04 10:16:08;;;;;;;3.53;3.23;;;9.50;99.90;;;;;;4973309;28;20719;-51
2021/05/04 10:18:36;;;;;;;3.90;3.30;;;9.60;99.90;;;;;;4986921;28;20267;-51
2021/05/04 10:21:06;;;;;;;3.60;3.30;;;9.60;99.90;;;;;;4982661;28;20319;-50
2021/05/04 10:23:36;;;;;;;3.43;3.03;;;9.70;99.90;;;;;;4987252;28;20260;-51
2021/05/04 10:26:09;;;;;;;4.37;3.30;;;9.80;99.90;;;;;;4987012;28;20541;-50
2021/05/04 10:28:38;;;;;;;2.80;2.60;;;10.00;99.90;;;;;;4986272;28;20241;-50
2021/05/04 10:31:08;;;;;;;4.30;2.50;;;10.20;99.90;;;;;;4988072;28;20246;-51
2021/05/04 10:33:37;;;;;;;2.53;2.30;;;10.40;99.90;;;;;;4990320;28;20646;-51
2021/05/04 10:36:06;;;;;;;2.30;2.10;;;10.50;99.90;;;;;;4989846;28;20235;-51
2021/05/04 10:38:53;;;;;;;2.20;1.90;;;10.90;99.90;;;;;;4988437;28;20299;-51
2021/05/04 10:41:21;;;;;;;2.77;2.00;;;11.00;99.90;;;;;;4970279;28;20744;-50
2021/05/04 10:44:12;;;;;;;2.43;2.10;;;11.10;99.90;;;;;;4970083;28;20268;-50
2021/05/04 10:46:42;;;;;;;2.37;2.13;;;11.50;99.90;;;;;;4978754;28;20986;-50
2021/05/04 10:49:17;;;;;;;2.87;2.67;;;11.50;99.90;;;;;;4981355;28;20237;-50
2021/05/04 10:51:49;;;;;;;4.63;2.70;;;11.50;99.90;;;;;;4983669;28;20247;-50
2021/05/04 10:54:18;;;;;;;5.50;3.20;;;11.30;99.90;;;;;;4982210;28;20246;-50
2021/05/04 10:56:48;;;;;;;3.90;3.10;;;11.60;99.90;;;;;;5001127;28;20564;-51
2021/05/04 10:59:45;;;;;;;4.37;3.43;;;12.00;99.90;;;;;;4985793;28;20246;-50
2021/05/04 11:02:29;;;;;;;4.07;3.40;;;11.90;99.90;;;;;;5000831;28;20252;-50
2021/05/04 11:04:58;;;;;;;5.17;3.40;;;11.80;99.90;;;;;;4991410;28;20249;-50
2021/05/04 11:07:58;;;;;;;5.13;3.93;;;11.70;99.90;;;;;;4991203;28;20266;-52
2021/05/04 11:10:27;;;;;;;6.03;3.67;;;11.60;99.90;;;;;;4986388;28;20281;-50
2021/05/04 11:12:55;;;;;;;4.73;3.10;;;11.60;99.90;;;;;;4979600;28;20701;-50
2021/05/04 11:15:29;;;;;;;3.43;2.53;;;11.40;99.90;;;;;;4980435;28;20237;-51
2021/05/04 11:17:59;;;;;;;2.97;2.47;;;11.20;99.90;;;;;;4980364;28;20237;-50
2021/05/04 11:20:38;;;;;;;3.40;2.37;;;11.10;99.90;;;;;;4981308;28;20670;-51
2021/05/04 11:23:09;;;;;;;3.67;2.73;;;11.10;99.90;;;;;;4981356;28;20329;-51
2021/05/04 11:25:40;;;;;;;2.90;2.23;;;11.10;99.90;;;;;;4980065;28;20245;-50
2021/05/04 11:28:09;;;;;;;6.40;2.40;;;11.10;99.90;;;;;;4975302;28;20263;-50
2021/05/04 11:30:40;;;;;;;4.33;2.47;;;11.00;99.90;;;;;;4965683;28;20248;-51
2021/05/04 11:33:28;;;;;;;3.83;2.43;;;10.90;99.90;;;;;;4977008;28;20249;-51
2021/05/04 11:35:56;;;;;;;3.93;2.27;;;10.80;99.90;;;;;;4971986;28;20717;-51
2021/05/04 11:38:25;;;;;;;4.60;2.13;;;10.70;99.90;;;;;;4973030;28;20245;-50
2021/05/04 11:40:54;;;;;;;2.97;2.50;;;10.60;99.90;;;;;;4971183;28;20248;-52
2021/05/04 11:43:23;;;;;;;5.57;2.50;;;10.60;99.90;;;;;;4971798;28;20267;-51
2021/05/04 11:45:52;;;;;;;3.50;2.10;;;10.60;99.90;;;;;;4970848;28;20327;-51
2021/05/04 11:48:19;;;;;;;4.47;2.50;;;10.50;99.90;;;;;;4970344;28;20240;-50
2021/05/04 11:50:50;;;;;;;5.13;1.90;;;10.40;99.90;;;;;;4968942;28;21030;-51
2021/05/04 11:53:19;;;;;;;3.00;1.93;;;10.30;99.90;;;;;;4970688;28;20282;-51
2021/05/04 11:55:48;;;;;;;2.20;1.80;;;10.40;99.90;;;;;;4973486;28;20311;-51
2021/05/04 11:58:18;;;;;;;2.67;1.50;;;10.40;99.90;;;;;;4984527;28;20383;-51
2021/05/04 12:00:46;;;;;;;3.23;1.67;;;10.40;99.90;;;;;;4968310;28;20613;-51
2021/05/04 12:03:16;;;;;;;2.57;1.30;;;10.50;99.90;;;;;;4972989;28;20359;-51
2021/05/04 12:05:46;;;;;;;2.87;1.17;;;10.40;99.90;;;;;;4970323;28;20257;-51
2021/05/04 12:08:15;;;;;;;1.10;1.00;;;10.30;99.90;;;;;;4968044;28;20774;-51
2021/05/04 12:10:47;;;;;;;2.03;1.23;;;10.30;99.90;;;;;;4967186;28;20844;-51
2021/05/04 12:13:27;;;;;;;3.23;1.50;;;10.10;99.90;;;;;;4969680;28;20253;-51
2021/05/04 12:15:57;;;;;;;1.63;1.17;;;10.10;99.90;;;;;;4970356;28;20392;-52
2021/05/04 12:18:30;;;;;;;2.27;1.40;;;10.30;99.90;;;;;;4972668;28;20687;-51
2021/05/04 12:20:59;;;;;;;1.83;1.40;;;10.40;99.90;;;;;;4966907;28;21458;-51
2021/05/04 12:23:31;;;;;;;4.30;1.70;;;10.50;99.90;;;;;;4970304;28;20839;-51
2021/05/04 12:26:03;;;;;;;4.53;2.13;;;10.40;99.90;;;;;;4968073;28;20288;-51
2021/05/04 12:28:32;;;;;;;3.67;2.00;;;10.30;99.90;;;;;;4969707;28;20727;-51
2021/05/04 12:31:05;;;;;;;2.87;1.97;;;10.20;99.90;;;;;;4977511;28;20232;-51
2021/05/04 12:33:34;;;;;;;4.30;2.27;;;10.20;99.90;;;;;;4982784;28;20247;-51
2021/05/04 12:36:05;;;;;;;2.73;2.00;;;10.20;99.90;;;;;;4984782;28;20246;-52
2021/05/04 12:38:40;;;;;;;3.37;2.50;;;10.10;99.90;;;;;;4981401;28;20353;-49
2021/05/04 12:41:12;;;;;;;4.67;2.50;;;10.20;99.90;;;;;;4974643;28;20644;-52
2021/05/04 12:43:43;;;;;;;4.70;2.90;;;10.20;99.90;;;;;;4975795;28;20574;-51
2021/05/04 12:46:16;;;;;;;4.90;2.80;;;10.20;99.90;;;;;;4978957;28;20295;-52
2021/05/04 12:48:51;;;;;;;4.37;2.93;;;10.10;99.90;;;;;;4981957;28;21890;-51
2021/05/04 12:51:26;;;;;;;5.80;2.60;;;10.00;99.90;;;;;;4980313;28;20259;-51
2021/05/04 12:54:06;;;;;;;6.87;2.90;;;10.00;99.90;;;;;;4965673;28;20329;-52
2021/05/04 12:56:34;;;;;;;4.10;2.60;;;9.90;99.90;;;;;;4955179;28;20350;-52
2021/05/04 12:59:05;;;;;;;4.90;2.80;;;10.00;99.90;;;;;;4954450;28;20272;-51
2021/05/04 13:01:51;;;;;;;5.40;3.10;;;9.90;99.90;;;;;;4961291;28;20247;-51
2021/05/04 13:04:41;;;;;;;4.50;3.20;;;9.90;99.90;;;;;;4980470;28;20330;-51